Time;durP1;ratioP1;P1;durP2;ratioP2;P2;SDS_P1;SDS_P2;PMS_P1;PMS_P2;Temp;Humidity;BMP_temperature;BMP_pressure;BME280_temperature;BME280_humidity;BME280_pressure;Samples;Min_cycle;Max_cycle;Signal;HPM_P1;HPM_P2
2022/04/28 00:01:57;;;;;;;2.55;2.33;;;17.60;52.20;;;;;;5092385;28;20207;-69
2022/04/28 00:04:22;;;;;;;2.33;2.13;;;17.60;52.20;;;;;;5091782;28;20307;-69
2022/04/28 00:06:48;;;;;;;4.55;2.35;;;17.60;52.20;;;;;;5092192;28;20209;-68
2022/04/28 00:09:13;;;;;;;2.53;2.17;;;17.60;52.10;;;;;;5092308;28;20243;-67
2022/04/28 00:11:39;;;;;;;3.10;2.20;;;17.60;52.20;;;;;;5091388;28;20547;-67
2022/04/28 00:14:07;;;;;;;2.85;2.35;;;17.60;52.20;;;;;;5092441;28;20198;-67
2022/04/28 00:16:34;;;;;;;2.67;2.45;;;17.60;52.20;;;;;;5092426;28;20227;-68
2022/04/28 00:19:00;;;;;;;2.22;2.00;;;17.60;52.20;;;;;;5091481;28;20209;-68
2022/04/28 00:21:26;;;;;;;2.47;2.10;;;17.60;52.20;;;;;;5092174;28;20588;-68
2022/04/28 00:23:51;;;;;;;2.58;2.38;;;17.60;52.20;;;;;;5091922;28;20539;-68
2022/04/28 00:26:17;;;;;;;2.47;2.28;;;17.60;52.20;;;;;;5091522;28;20165;-68
2022/04/28 00:28:42;;;;;;;2.65;2.00;;;17.60;52.20;;;;;;5095784;28;20204;-68
2022/04/28 00:31:08;;;;;;;2.90;2.03;;;17.50;52.10;;;;;;5096621;28;20659;-68
2022/04/28 00:33:33;;;;;;;4.13;2.50;;;17.60;52.20;;;;;;5095645;28;20173;-69
2022/04/28 00:35:59;;;;;;;4.55;2.70;;;17.50;52.20;;;;;;5096313;28;20180;-68
2022/04/28 00:38:24;;;;;;;2.78;2.35;;;17.50;52.20;;;;;;5096244;28;20166;-68
2022/04/28 00:40:50;;;;;;;2.67;2.47;;;17.50;52.10;;;;;;5095080;28;20209;-68
2022/04/28 00:43:18;;;;;;;2.67;2.28;;;17.50;52.20;;;;;;5096098;28;20571;-68
2022/04/28 00:45:45;;;;;;;2.95;2.58;;;17.50;52.20;;;;;;5095098;28;20177;-69
2022/04/28 00:50:55;;;;;;;2.78;2.40;;;17.50;52.20;;;;;;5095744;28;20596;-68
2022/04/28 00:53:20;;;;;;;3.35;2.33;;;17.50;52.10;;;;;;5077521;28;20166;-68
2022/04/28 00:55:46;;;;;;;3.88;2.38;;;17.50;52.20;;;;;;5095667;28;20211;-68
2022/04/28 00:58:11;;;;;;;2.78;2.35;;;17.40;52.10;;;;;;5094397;28;20579;-68
2022/04/28 01:00:38;;;;;;;2.55;2.33;;;17.50;52.20;;;;;;5093655;28;20233;-69
2022/04/28 01:03:03;;;;;;;2.75;2.25;;;17.50;52.20;;;;;;5095796;28;20178;-70
2022/04/28 01:05:32;;;;;;;2.92;2.33;;;17.50;52.20;;;;;;5095689;28;20219;-71
2022/04/28 01:07:57;;;;;;;2.38;2.10;;;17.50;52.20;;;;;;5094890;28;20208;-68
2022/04/28 01:10:23;;;;;;;3.00;2.70;;;17.40;52.10;;;;;;5095806;28;20185;-68
2022/04/28 01:12:49;;;;;;;2.38;2.17;;;17.40;52.10;;;;;;5095390;28;20173;-68
2022/04/28 01:15:14;;;;;;;2.95;2.53;;;17.40;52.10;;;;;;5094993;28;20170;-68
2022/04/28 01:17:43;;;;;;;2.25;1.98;;;17.40;52.10;;;;;;5095279;28;20548;-69
2022/04/28 01:20:09;;;;;;;4.53;3.10;;;17.40;52.10;;;;;;5095902;28;20198;-68
2022/04/28 01:22:35;;;;;;;2.97;2.20;;;17.40;52.10;;;;;;5094480;28;20231;-69
2022/04/28 01:25:08;;;;;;;2.95;2.20;;;17.40;52.10;;;;;;5095501;28;20170;-68
2022/04/28 01:27:37;;;;;;;2.90;2.42;;;17.40;52.10;;;;;;5095345;28;20184;-67
2022/04/28 01:30:20;;;;;;;2.50;2.30;;;17.40;52.10;;;;;;5094700;28;20170;-67
2022/04/28 01:32:46;;;;;;;2.85;2.20;;;17.40;52.20;;;;;;5094730;28;20534;-68
2022/04/28 01:35:11;;;;;;;2.90;2.30;;;17.40;52.10;;;;;;5094335;28;20178;-69
2022/04/28 01:37:39;;;;;;;3.22;2.40;;;17.30;52.20;;;;;;5094847;28;20637;-69
2022/04/28 01:40:11;;;;;;;2.92;2.60;;;17.30;52.10;;;;;;5093961;28;20250;-68
2022/04/28 01:42:38;;;;;;;3.22;2.80;;;17.30;52.20;;;;;;5094399;28;20245;-68
2022/04/28 01:45:06;;;;;;;2.47;2.28;;;17.30;52.10;;;;;;5095121;28;20177;-68
2022/04/28 01:47:31;;;;;;;4.72;2.65;;;17.30;52.10;;;;;;5095152;28;20182;-69
2022/04/28 01:49:57;;;;;;;3.80;2.60;;;17.30;52.20;;;;;;5094092;28;20236;-68
2022/04/28 01:55:07;;;;;;;2.60;2.17;;;17.30;52.20;;;;;;5094921;28;20593;-68
2022/04/28 01:57:32;;;;;;;2.63;2.38;;;17.30;52.20;;;;;;5093545;28;20226;-68
2022/04/28 01:59:58;;;;;;;2.80;2.45;;;17.30;52.10;;;;;;5094388;28;20213;-69
2022/04/28 02:02:24;;;;;;;4.00;2.60;;;17.30;52.10;;;;;;5094799;28;20185;-69
2022/04/28 02:04:49;;;;;;;3.03;2.25;;;17.30;52.10;;;;;;5093490;28;20602;-68
2022/04/28 02:07:15;;;;;;;2.72;2.28;;;17.30;52.20;;;;;;5094692;28;20266;-68
2022/04/28 02:09:41;;;;;;;4.75;2.55;;;17.30;52.10;;;;;;5094276;28;20173;-67
2022/04/28 02:12:07;;;;;;;2.63;2.42;;;17.30;52.20;;;;;;5093545;28;20547;-67
2022/04/28 02:14:33;;;;;;;3.67;2.60;;;17.30;52.30;;;;;;5093196;28;20253;-68
2022/04/28 02:16:58;;;;;;;3.95;2.60;;;17.20;52.10;;;;;;5093960;28;20606;-68
2022/04/28 02:19:24;;;;;;;3.78;2.30;;;17.30;52.20;;;;;;5093767;28;20216;-68
2022/04/28 02:21:50;;;;;;;2.90;2.53;;;17.20;52.20;;;;;;5094003;28;20178;-68
2022/04/28 02:24:15;;;;;;;2.88;2.67;;;17.20;52.10;;;;;;5093549;28;20561;-68
2022/04/28 02:26:41;;;;;;;3.13;2.45;;;17.20;52.20;;;;;;5093893;28;20174;-68
2022/04/28 02:29:06;;;;;;;3.25;2.47;;;17.20;52.10;;;;;;5094186;28;20508;-68
2022/04/28 02:31:32;;;;;;;2.50;2.30;;;17.20;52.10;;;;;;5093543;28;20182;-68
2022/04/28 02:33:57;;;;;;;3.78;2.63;;;17.20;52.20;;;;;;5093918;28;20178;-69
2022/04/28 02:36:24;;;;;;;2.95;2.58;;;17.20;52.10;;;;;;5094113;28;20201;-68
2022/04/28 02:38:50;;;;;;;3.70;2.33;;;17.20;52.20;;;;;;5093187;28;20178;-68
2022/04/28 02:41:20;;;;;;;4.95;2.72;;;17.20;52.20;;;;;;5093909;28;20259;-68
2022/04/28 02:43:46;;;;;;;2.63;2.38;;;17.20;52.20;;;;;;5093781;28;20213;-69
2022/04/28 02:46:11;;;;;;;2.78;2.58;;;17.20;52.20;;;;;;5093195;28;20213;-68
2022/04/28 02:48:37;;;;;;;4.57;2.80;;;17.20;52.20;;;;;;5093553;28;20166;-69
2022/04/28 02:51:03;;;;;;;2.65;2.38;;;17.20;52.20;;;;;;5093432;28;20190;-68
2022/04/28 02:53:28;;;;;;;3.85;2.35;;;17.20;52.20;;;;;;5093071;28;20197;-68
2022/04/28 02:55:54;;;;;;;3.67;2.55;;;17.10;52.20;;;;;;5093245;28;20268;-68
2022/04/28 02:58:25;;;;;;;5.00;2.50;;;17.20;52.20;;;;;;5093346;28;20213;-69
2022/04/28 03:00:51;;;;;;;3.45;2.13;;;17.10;52.20;;;;;;5092542;28;20209;-70
2022/04/28 03:03:19;;;;;;;2.67;2.47;;;17.10;52.20;;;;;;5093547;28;20170;-70
2022/04/28 03:11:14;;;;;;;3.65;2.17;;;17.10;52.20;;;;;;5093453;28;20176;-68
2022/04/28 03:13:39;;;;;;;4.40;2.50;;;17.10;52.20;;;;;;5092362;28;20261;-69
2022/04/28 03:16:06;;;;;;;4.03;2.47;;;17.10;52.20;;;;;;5093247;28;20697;-70
2022/04/28 03:18:31;;;;;;;2.53;2.20;;;17.10;52.20;;;;;;5093201;28;20185;-69
2022/04/28 03:20:57;;;;;;;3.83;2.60;;;17.10;52.20;;;;;;5091979;28;20197;-69
2022/04/28 03:23:23;;;;;;;1.80;1.70;;;17.10;52.20;;;;;;5093219;28;20166;-69
2022/04/28 03:25:51;;;;;;;2.78;2.50;;;17.10;52.20;;;;;;5092993;28;20181;-71
2022/04/28 03:28:23;;;;;;;2.90;2.42;;;17.10;52.20;;;;;;5092472;28;20178;-69
2022/04/28 03:30:49;;;;;;;2.28;2.05;;;17.00;52.10;;;;;;5092765;28;20170;-68
2022/04/28 03:33:15;;;;;;;3.03;2.33;;;17.10;52.20;;;;;;5092907;28;20632;-68
2022/04/28 03:35:41;;;;;;;4.32;2.25;;;17.10;52.20;;;;;;5092103;28;20201;-68
2022/04/28 03:38:11;;;;;;;3.03;2.72;;;17.00;52.10;;;;;;5092779;28;20255;-68
2022/04/28 03:40:37;;;;;;;3.10;2.17;;;17.00;52.20;;;;;;5092583;28;20221;-69
2022/04/28 03:43:03;;;;;;;3.60;2.60;;;17.00;52.20;;;;;;5092109;28;20522;-68
2022/04/28 03:45:28;;;;;;;3.40;2.50;;;17.00;52.20;;;;;;5092788;28;20174;-68
2022/04/28 03:47:55;;;;;;;2.58;2.38;;;17.00;52.20;;;;;;5092446;28;21121;-69
2022/04/28 03:50:21;;;;;;;2.97;2.45;;;17.00;52.20;;;;;;5092177;28;20185;-68
2022/04/28 03:52:49;;;;;;;2.55;2.22;;;17.00;52.20;;;;;;5092592;28;20165;-68
2022/04/28 03:55:14;;;;;;;3.17;2.33;;;17.00;52.20;;;;;;5092626;28;20173;-67
2022/04/28 03:57:41;;;;;;;3.65;2.05;;;17.00;52.30;;;;;;5091427;28;20224;-68
2022/04/28 04:00:07;;;;;;;2.63;2.42;;;17.00;52.20;;;;;;5092572;28;20216;-69
2022/04/28 04:02:32;;;;;;;2.60;2.05;;;17.00;52.20;;;;;;5091223;28;20185;-69
2022/04/28 04:04:58;;;;;;;3.28;2.42;;;17.00;52.20;;;;;;5092367;28;20515;-68
2022/04/28 04:07:28;;;;;;;3.10;2.15;;;16.90;52.20;;;;;;5092459;28;20166;-68
2022/04/28 04:09:54;;;;;;;3.20;2.47;;;17.00;52.20;;;;;;5091698;28;20234;-68
2022/04/28 04:12:19;;;;;;;2.10;1.90;;;16.90;52.30;;;;;;5092376;28;20174;-67
2022/04/28 04:14:45;;;;;;;3.65;2.35;;;16.90;52.20;;;;;;5092170;28;20170;-67
2022/04/28 04:17:10;;;;;;;2.50;2.30;;;16.90;52.30;;;;;;5091595;28;20281;-67
2022/04/28 04:19:36;;;;;;;2.33;2.15;;;16.90;52.20;;;;;;5092178;28;20253;-68
2022/04/28 04:22:01;;;;;;;3.45;2.45;;;16.90;52.20;;;;;;5092417;28;20165;-68
2022/04/28 04:24:27;;;;;;;3.00;2.65;;;16.90;52.30;;;;;;5091517;28;20235;-68
2022/04/28 04:26:53;;;;;;;3.85;2.20;;;16.90;52.30;;;;;;5091894;28;20169;-67
2022/04/28 04:29:18;;;;;;;3.40;2.38;;;16.90;52.20;;;;;;5092104;28;20205;-67
2022/04/28 04:34:28;;;;;;;2.60;2.33;;;16.90;52.20;;;;;;5092322;28;20643;-68
2022/04/28 04:36:53;;;;;;;2.75;2.03;;;16.90;52.30;;;;;;5091724;28;20181;-68
2022/04/28 04:39:19;;;;;;;3.08;2.15;;;16.80;52.20;;;;;;5091589;28;20205;-68
2022/04/28 04:41:44;;;;;;;2.72;2.47;;;16.90;52.20;;;;;;5091940;28;20585;-68
2022/04/28 04:44:13;;;;;;;3.25;2.75;;;16.90;52.20;;;;;;5092115;28;20705;-68
2022/04/28 04:46:40;;;;;;;3.17;2.42;;;16.90;52.30;;;;;;5091216;28;20186;-68
2022/04/28 04:49:05;;;;;;;3.83;2.50;;;16.90;52.30;;;;;;5092175;28;20185;-68
2022/04/28 04:51:31;;;;;;;3.20;2.20;;;16.90;52.20;;;;;;5092255;28;20178;-68
2022/04/28 04:53:56;;;;;;;2.60;2.30;;;16.90;52.20;;;;;;5090995;28;20532;-68
2022/04/28 04:56:22;;;;;;;2.20;2.03;;;16.90;52.30;;;;;;5091964;28;20178;-68
2022/04/28 04:58:47;;;;;;;3.13;2.63;;;16.90;52.20;;;;;;5091068;28;20294;-69
2022/04/28 05:01:13;;;;;;;4.40;2.25;;;16.90;52.20;;;;;;5091884;28;20257;-70
2022/04/28 05:03:40;;;;;;;3.05;2.30;;;16.90;52.30;;;;;;5091599;28;20190;-72
2022/04/28 05:06:06;;;;;;;4.70;2.20;;;16.90;52.30;;;;;;5091519;28;20189;-69
2022/04/28 05:08:34;;;;;;;3.63;2.33;;;16.90;52.20;;;;;;5091933;28;20528;-68
2022/04/28 05:11:00;;;;;;;2.17;1.90;;;16.90;52.20;;;;;;5091748;28;20178;-68
2022/04/28 05:13:25;;;;;;;4.40;2.53;;;16.90;52.20;;;;;;5092333;28;20534;-67
2022/04/28 05:15:51;;;;;;;3.97;2.22;;;16.90;52.10;;;;;;5095455;28;20170;-68
2022/04/28 05:18:16;;;;;;;2.85;2.30;;;16.90;52.10;;;;;;5095501;28;20541;-69
2022/04/28 05:20:42;;;;;;;4.57;2.60;;;16.90;52.20;;;;;;5094513;28;20676;-69
2022/04/28 05:23:07;;;;;;;2.38;2.17;;;16.80;52.10;;;;;;5095695;28;20573;-69
2022/04/28 05:25:33;;;;;;;3.20;2.22;;;16.90;52.20;;;;;;5095497;28;20184;-70
2022/04/28 05:27:59;;;;;;;2.17;2.08;;;16.90;52.10;;;;;;5094359;28;20178;-69
2022/04/28 05:30:24;;;;;;;2.97;2.20;;;16.90;52.10;;;;;;5095318;28;20225;-68
2022/04/28 05:32:50;;;;;;;3.45;2.15;;;16.90;52.10;;;;;;5095157;28;20272;-69
2022/04/28 05:35:15;;;;;;;2.08;1.92;;;16.90;52.10;;;;;;5094458;28;20166;-70
2022/04/28 05:37:41;;;;;;;2.90;2.08;;;16.90;52.10;;;;;;5095167;28;20564;-70
2022/04/28 05:40:08;;;;;;;2.92;2.13;;;16.90;52.10;;;;;;5093883;28;20204;-71
2022/04/28 05:48:02;;;;;;;2.55;1.90;;;16.90;52.10;;;;;;5094607;28;20221;-69
2022/04/28 05:50:28;;;;;;;2.15;1.95;;;16.90;52.00;;;;;;5094852;28;20652;-69
2022/04/28 05:52:53;;;;;;;2.13;1.92;;;17.00;52.10;;;;;;5094503;28;20326;-69
2022/04/28 05:55:19;;;;;;;2.92;2.35;;;16.90;52.10;;;;;;5094013;28;20709;-69
2022/04/28 05:57:44;;;;;;;2.65;2.15;;;16.90;52.10;;;;;;5094365;28;20233;-71
2022/04/28 06:00:10;;;;;;;2.45;2.00;;;17.00;52.00;;;;;;5094768;28;20593;-70
2022/04/28 06:02:37;;;;;;;2.83;2.22;;;17.00;52.00;;;;;;5093661;28;20714;-71
2022/04/28 06:05:03;;;;;;;2.58;2.38;;;17.00;52.00;;;;;;5094672;28;20490;-70
2022/04/28 06:07:29;;;;;;;5.28;2.33;;;17.00;51.90;;;;;;5094558;28;20268;-70
2022/04/28 06:09:54;;;;;;;2.83;2.00;;;17.00;52.00;;;;;;5094086;28;20253;-69
2022/04/28 06:12:20;;;;;;;2.88;2.17;;;17.00;52.00;;;;;;5095231;28;20177;-68
2022/04/28 06:14:45;;;;;;;2.40;1.90;;;17.00;52.00;;;;;;5094670;28;20177;-69
2022/04/28 06:17:11;;;;;;;1.90;1.60;;;17.00;51.90;;;;;;5094240;28;20238;-69
2022/04/28 06:19:36;;;;;;;2.50;1.92;;;17.00;51.90;;;;;;5094528;28;20202;-71
2022/04/28 06:22:02;;;;;;;3.58;2.13;;;17.00;51.90;;;;;;5094731;28;20185;-69
2022/04/28 06:24:28;;;;;;;2.67;2.15;;;17.00;51.80;;;;;;5093616;28;20550;-69
2022/04/28 06:26:56;;;;;;;3.53;2.10;;;17.00;51.80;;;;;;5094385;28;20178;-69
2022/04/28 06:29:21;;;;;;;2.45;2.08;;;17.00;51.80;;;;;;5094694;28;20170;-69
2022/04/28 06:31:47;;;;;;;3.58;2.67;;;17.10;51.90;;;;;;5093647;28;20236;-69
2022/04/28 06:34:12;;;;;;;2.78;2.35;;;17.10;51.90;;;;;;5094465;28;20402;-69
2022/04/28 06:36:38;;;;;;;1.95;1.70;;;17.10;51.80;;;;;;5094070;28;20231;-69
2022/04/28 06:39:04;;;;;;;3.40;2.20;;;17.10;51.80;;;;;;5093813;28;20170;-69
2022/04/28 06:41:29;;;;;;;2.85;2.08;;;17.20;51.80;;;;;;5094364;28;20177;-70
2022/04/28 06:43:58;;;;;;;1.92;1.77;;;17.20;51.70;;;;;;5094169;28;20181;-69
2022/04/28 06:46:23;;;;;;;2.20;2.00;;;17.30;51.60;;;;;;5093698;28;20233;-69
2022/04/28 06:48:49;;;;;;;3.13;2.13;;;17.30;51.50;;;;;;5094037;28;20194;-69
2022/04/28 06:51:14;;;;;;;2.25;1.80;;;17.30;51.50;;;;;;5094009;28;20192;-68
2022/04/28 06:53:40;;;;;;;2.65;1.70;;;17.30;51.50;;;;;;5093417;28;20577;-70
2022/04/28 06:56:09;;;;;;;5.22;2.30;;;17.40;51.50;;;;;;5094250;28;20255;-69
2022/04/28 06:58:35;;;;;;;2.33;1.92;;;17.30;51.40;;;;;;5093060;28;20229;-70
2022/04/28 07:01:01;;;;;;;3.05;1.83;;;17.40;51.40;;;;;;5093958;28;20235;-71
2022/04/28 07:03:26;;;;;;;2.10;1.90;;;17.30;51.30;;;;;;5094041;28;20178;-71
2022/04/28 07:05:53;;;;;;;3.75;2.00;;;17.40;51.40;;;;;;5092823;28;20182;-68
2022/04/28 07:08:19;;;;;;;3.55;2.30;;;17.40;51.30;;;;;;5093803;28;20535;-67
2022/04/28 07:10:44;;;;;;;2.85;2.03;;;17.40;51.30;;;;;;5093658;28;20174;-69
2022/04/28 07:13:10;;;;;;;3.53;1.80;;;17.40;51.30;;;;;;5093300;28;20169;-72
2022/04/28 07:15:36;;;;;;;4.05;2.17;;;17.40;51.30;;;;;;5093428;28;20188;-73
2022/04/28 07:18:03;;;;;;;2.80;1.90;;;17.40;51.30;;;;;;5093630;28;20169;-73
2022/04/28 07:20:35;;;;;;;3.25;2.33;;;17.40;51.30;;;;;;5092609;28;20213;-70
2022/04/28 07:23:01;;;;;;;2.97;2.00;;;17.40;51.40;;;;;;5093316;28;20204;-69
2022/04/28 07:25:27;;;;;;;6.63;2.20;;;17.50;51.50;;;;;;5093207;28;20628;-67
2022/04/28 07:27:53;;;;;;;3.95;2.08;;;17.50;51.70;;;;;;5092277;28;20539;-71
2022/04/28 07:30:20;;;;;;;3.55;2.20;;;17.50;51.50;;;;;;5092978;28;20601;-71
2022/04/28 07:32:46;;;;;;;3.25;2.05;;;17.60;51.50;;;;;;5089958;28;20648;-72
2022/04/28 07:35:12;;;;;;;3.33;1.88;;;17.50;51.60;;;;;;5092263;28;20636;-72
2022/04/28 07:37:38;;;;;;;7.88;2.38;;;17.50;51.60;;;;;;5092446;28;20173;-68
2022/04/28 07:40:04;;;;;;;7.68;2.42;;;17.50;51.50;;;;;;5093525;28;20221;-70
2022/04/28 07:42:35;;;;;;;2.58;1.90;;;17.60;51.50;;;;;;5092759;28;20216;-71
2022/04/28 07:45:01;;;;;;;3.72;1.80;;;17.70;51.50;;;;;;5093348;28;20186;-71
2022/04/28 07:47:27;;;;;;;3.75;2.13;;;17.60;51.40;;;;;;5093289;28;20192;-71
2022/04/28 07:49:53;;;;;;;4.13;1.85;;;17.70;51.50;;;;;;5091911;28;20710;-68
2022/04/28 07:52:18;;;;;;;5.00;2.20;;;17.60;51.40;;;;;;5092837;28;20192;-70
2022/04/28 07:54:44;;;;;;;5.35;2.20;;;17.70;51.60;;;;;;5091464;28;20177;-70
2022/04/28 07:57:10;;;;;;;9.60;2.47;;;17.70;51.60;;;;;;5092407;28;20616;-71
2022/04/28 07:59:35;;;;;;;2.72;2.05;;;17.70;51.60;;;;;;5092156;28;20198;-73
2022/04/28 08:02:03;;;;;;;4.50;2.20;;;17.70;51.70;;;;;;5092103;28;20208;-72
2022/04/28 08:04:29;;;;;;;4.30;2.15;;;17.70;51.70;;;;;;5093364;28;20265;-71
2022/04/28 08:06:54;;;;;;;3.42;1.58;;;17.70;51.70;;;;;;5092728;28;20257;-70
2022/04/28 08:09:20;;;;;;;4.28;2.13;;;17.70;51.60;;;;;;5092237;28;20580;-70
2022/04/28 08:11:45;;;;;;;3.53;2.00;;;17.70;51.60;;;;;;5092732;28;20688;-71
2022/04/28 08:14:11;;;;;;;5.22;2.38;;;17.80;51.60;;;;;;5092843;28;20170;-71
2022/04/28 08:16:37;;;;;;;3.88;2.20;;;17.80;51.60;;;;;;5091797;28;20190;-72
2022/04/28 08:19:03;;;;;;;6.43;2.22;;;17.70;51.50;;;;;;5092886;28;20182;-71
2022/04/28 08:21:28;;;;;;;4.65;2.03;;;17.80;51.60;;;;;;5092832;28;20213;-73
2022/04/28 08:23:54;;;;;;;4.53;2.00;;;17.80;51.50;;;;;;5091749;28;20224;-72
2022/04/28 08:26:19;;;;;;;4.07;2.17;;;17.80;51.50;;;;;;5092880;28;20196;-72
2022/04/28 08:28:48;;;;;;;4.65;2.20;;;17.80;51.50;;;;;;5092320;28;20174;-71
2022/04/28 08:31:13;;;;;;;2.92;1.92;;;17.80;51.50;;;;;;5091854;28;20206;-72
2022/04/28 08:33:39;;;;;;;2.72;1.90;;;17.90;51.50;;;;;;5092265;28;20201;-70
2022/04/28 08:36:04;;;;;;;3.50;2.03;;;17.90;51.50;;;;;;5092698;28;20176;-70
2022/04/28 08:38:31;;;;;;;3.13;2.22;;;17.90;51.50;;;;;;5091951;28;20174;-70
2022/04/28 08:41:01;;;;;;;3.75;2.10;;;17.90;51.40;;;;;;5092187;28;20288;-70
2022/04/28 08:43:33;;;;;;;3.67;2.22;;;17.90;51.40;;;;;;5091920;28;20265;-72
2022/04/28 08:48:53;;;;;;;3.63;2.30;;;17.90;51.30;;;;;;5094258;28;20212;-70
2022/04/28 08:51:20;;;;;;;5.93;2.50;;;18.00;52.00;;;;;;5095766;28;20192;-71
2022/04/28 08:53:47;;;;;;;3.00;2.08;;;18.00;51.40;;;;;;5096222;28;20181;-71
2022/04/28 08:56:13;;;;;;;3.85;2.08;;;18.00;51.40;;;;;;5096399;28;20173;-71
2022/04/28 08:58:39;;;;;;;3.22;1.80;;;18.00;51.30;;;;;;5095118;28;20275;-72
2022/04/28 09:01:04;;;;;;;2.65;1.83;;;18.00;51.40;;;;;;5096460;28;20209;-72
2022/04/28 09:03:30;;;;;;;2.97;2.00;;;18.00;51.30;;;;;;5096190;28;20230;-72
2022/04/28 09:05:55;;;;;;;3.85;2.00;;;18.10;51.40;;;;;;5095308;28;20181;-71
2022/04/28 09:08:21;;;;;;;4.75;2.60;;;18.10;51.40;;;;;;5096172;28;20189;-72
2022/04/28 09:10:46;;;;;;;2.63;2.00;;;18.10;51.30;;;;;;5095679;28;20174;-71
2022/04/28 09:15:56;;;;;;;4.70;2.03;;;18.10;51.30;;;;;;5095749;28;20540;-73
2022/04/28 09:18:22;;;;;;;2.97;2.10;;;18.10;51.30;;;;;;5096058;28;20170;-72
2022/04/28 09:20:48;;;;;;;3.35;1.88;;;18.10;51.30;;;;;;5094848;28;20205;-73
2022/04/28 09:23:14;;;;;;;4.57;1.85;;;18.20;51.30;;;;;;5095597;28;20737;-71
2022/04/28 09:25:40;;;;;;;3.15;1.95;;;18.20;51.30;;;;;;5095506;28;20182;-73
2022/04/28 09:28:06;;;;;;;2.80;2.17;;;18.20;51.30;;;;;;5094970;28;20192;-72
2022/04/28 09:30:46;;;;;;;2.83;1.80;;;18.20;51.30;;;;;;5095822;28;20177;-72
2022/04/28 09:33:12;;;;;;;3.90;2.00;;;18.20;51.10;;;;;;5095146;28;20197;-70
2022/04/28 09:35:48;;;;;;;3.00;2.05;;;18.20;51.20;;;;;;5095561;28;20257;-72
2022/04/28 09:38:14;;;;;;;2.35;2.03;;;18.20;51.20;;;;;;5095787;28;20174;-70
2022/04/28 09:43:26;;;;;;;3.50;2.00;;;18.30;51.20;;;;;;5095631;28;20172;-72
2022/04/28 09:45:52;;;;;;;2.83;1.65;;;18.30;51.20;;;;;;5095194;28;20520;-71
2022/04/28 09:48:17;;;;;;;4.90;2.08;;;18.30;51.20;;;;;;5094701;28;20169;-72
2022/04/28 09:50:43;;;;;;;2.53;2.00;;;18.30;51.20;;;;;;5093708;28;20181;-71
2022/04/28 09:53:08;;;;;;;2.72;2.22;;;18.40;51.20;;;;;;5095514;28;20259;-71
2022/04/28 09:55:34;;;;;;;2.28;1.92;;;18.40;51.20;;;;;;5094590;28;20530;-72
2022/04/28 09:58:01;;;;;;;3.03;1.80;;;18.40;51.20;;;;;;5095279;28;20726;-71
2022/04/28 10:00:26;;;;;;;2.10;1.90;;;18.40;51.20;;;;;;5094329;28;20621;-73
2022/04/28 10:02:52;;;;;;;2.83;1.70;;;18.40;51.10;;;;;;5092887;28;20166;-70
2022/04/28 10:05:18;;;;;;;2.65;1.80;;;18.40;51.10;;;;;;5093919;28;20629;-71
2022/04/28 10:07:43;;;;;;;3.25;1.98;;;18.40;51.10;;;;;;5093756;28;20182;-71
2022/04/28 10:10:09;;;;;;;3.38;2.03;;;18.30;51.10;;;;;;5094267;28;20239;-71
2022/04/28 10:12:34;;;;;;;1.98;1.52;;;18.50;51.10;;;;;;5094756;28;20525;-73
2022/04/28 10:15:00;;;;;;;2.70;1.60;;;18.40;51.10;;;;;;5093616;28;20180;-72
2022/04/28 10:17:37;;;;;;;3.53;2.08;;;18.50;51.10;;;;;;5094081;28;20185;-72
2022/04/28 10:20:16;;;;;;;3.33;1.92;;;18.50;51.10;;;;;;5095004;28;20213;-72
2022/04/28 10:22:41;;;;;;;3.03;1.88;;;18.50;51.10;;;;;;5093957;28;20231;-73
2022/04/28 10:33:25;;;;;;;2.90;1.92;;;18.60;51.10;;;;;;5094603;28;20180;-71
2022/04/28 10:35:51;;;;;;;2.63;1.75;;;18.60;51.00;;;;;;5094217;28;20543;-70
2022/04/28 10:38:30;;;;;;;3.40;1.75;;;18.60;51.00;;;;;;5093713;28;20169;-71
2022/04/28 10:41:02;;;;;;;2.60;1.77;;;18.60;51.00;;;;;;5094205;28;20217;-71
2022/04/28 10:43:33;;;;;;;3.28;1.70;;;18.60;51.00;;;;;;5093768;28;20185;-71
2022/04/28 10:46:28;;;;;;;2.80;1.80;;;18.60;51.00;;;;;;5093987;28;20174;-70
2022/04/28 10:49:03;;;;;;;2.00;1.80;;;18.60;51.00;;;;;;5093846;28;20193;-71
2022/04/28 10:51:32;;;;;;;3.45;1.85;;;18.60;51.00;;;;;;5093510;28;20674;-71
2022/04/28 10:54:11;;;;;;;1.73;1.63;;;18.60;51.00;;;;;;5094087;28;20193;-70
2022/04/28 10:56:40;;;;;;;2.40;1.50;;;18.70;51.10;;;;;;5093960;28;20176;-71
2022/04/28 10:59:35;;;;;;;2.67;1.88;;;18.70;51.10;;;;;;5093239;28;20221;-71
2022/04/28 11:02:13;;;;;;;2.25;1.70;;;18.70;51.10;;;;;;5090215;28;20212;-70
2022/04/28 11:04:40;;;;;;;2.60;2.03;;;18.70;51.10;;;;;;5093121;28;20177;-68
2022/04/28 11:07:08;;;;;;;2.85;1.50;;;18.70;51.10;;;;;;5093871;28;20639;-66
2022/04/28 11:09:35;;;;;;;3.10;1.90;;;18.70;51.00;;;;;;5093777;28;20181;-66
2022/04/28 11:12:08;;;;;;;3.88;1.95;;;18.70;51.00;;;;;;5093099;28;20189;-65
2022/04/28 11:14:43;;;;;;;2.45;1.80;;;18.80;51.00;;;;;;5093880;28;20665;-67
2022/04/28 11:17:10;;;;;;;2.70;1.80;;;18.80;51.70;;;;;;5093680;28;20681;-67
2022/04/28 11:19:36;;;;;;;2.05;1.60;;;18.80;51.10;;;;;;5091535;28;20296;-68
2022/04/28 11:22:01;;;;;;;4.07;1.73;;;18.80;51.00;;;;;;5093455;28;20253;-69
2022/04/28 11:24:28;;;;;;;3.08;1.95;;;18.80;51.10;;;;;;5093829;28;20226;-72
2022/04/28 11:26:55;;;;;;;2.75;1.70;;;18.80;51.10;;;;;;5092746;28;20177;-70
2022/04/28 11:29:22;;;;;;;3.10;1.80;;;18.80;51.10;;;;;;5092392;28;20180;-71
2022/04/28 11:31:49;;;;;;;2.28;1.90;;;18.80;51.10;;;;;;5093265;28;20178;-72
2022/04/28 11:34:14;;;;;;;2.45;1.70;;;18.80;51.20;;;;;;5091368;28;20636;-72
2022/04/28 11:36:41;;;;;;;5.15;2.13;;;18.80;51.10;;;;;;5093009;28;20181;-73
2022/04/28 11:39:08;;;;;;;2.78;1.77;;;18.80;51.10;;;;;;5093611;28;20170;-73
2022/04/28 11:41:34;;;;;;;2.60;1.67;;;18.80;51.10;;;;;;5092749;28;20216;-73
2022/04/28 11:44:09;;;;;;;3.35;1.77;;;18.80;51.10;;;;;;5093552;28;20252;-72
2022/04/28 11:46:35;;;;;;;5.07;1.85;;;18.80;51.10;;;;;;5093445;28;20176;-70
2022/04/28 11:49:00;;;;;;;2.10;1.38;;;18.90;51.00;;;;;;5092456;28;20689;-70
2022/04/28 11:51:26;;;;;;;2.70;1.45;;;18.90;51.10;;;;;;5092225;28;20213;-69
2022/04/28 11:53:53;;;;;;;2.65;1.80;;;18.90;51.10;;;;;;5092294;28;20217;-68
2022/04/28 11:56:20;;;;;;;4.30;1.55;;;18.90;51.10;;;;;;5093233;28;20231;-69
2022/04/28 11:58:48;;;;;;;2.90;1.50;;;18.90;51.10;;;;;;5092622;28;20626;-70
2022/04/28 12:01:13;;;;;;;2.45;1.60;;;18.90;51.10;;;;;;5092374;28;20615;-71
2022/04/28 12:03:39;;;;;;;2.28;1.38;;;19.00;51.10;;;;;;5092498;28;20616;-71
2022/04/28 12:06:04;;;;;;;3.80;1.80;;;18.90;51.00;;;;;;5091613;28;20276;-69
2022/04/28 12:08:30;;;;;;;3.22;2.05;;;18.90;51.00;;;;;;5092049;28;20170;-68
2022/04/28 12:19:19;;;;;;;5.82;1.75;;;19.10;51.00;;;;;;5091377;28;20180;-68
2022/04/28 12:19:23;;;;;;;5.93;1.67;;;19.00;51.00;;;;;;5091978;28;20178;-70
2022/04/28 12:21:49;;;;;;;4.43;1.60;;;19.10;51.10;;;;;;5092599;28;20185;-71
2022/04/28 12:24:16;;;;;;;4.22;1.85;;;19.10;51.00;;;;;;5091479;28;20695;-70
2022/04/28 12:26:42;;;;;;;3.47;1.77;;;19.10;51.00;;;;;;5092353;28;20246;-70
2022/04/28 12:29:09;;;;;;;3.25;1.58;;;19.10;51.00;;;;;;5092202;28;20174;-70
2022/04/28 12:31:35;;;;;;;4.05;1.80;;;19.10;51.00;;;;;;5092552;28;20173;-70
2022/04/28 12:34:11;;;;;;;4.55;2.30;;;19.10;51.00;;;;;;5092882;28;20280;-73
2022/04/28 12:36:44;;;;;;;3.22;1.92;;;19.10;51.00;;;;;;5091741;28;20179;-72
2022/04/28 12:39:10;;;;;;;3.03;2.28;;;19.10;51.10;;;;;;5092583;28;20169;-72
2022/04/28 12:41:41;;;;;;;4.78;2.00;;;19.10;51.10;;;;;;5091111;28;20740;-72
2022/04/28 12:44:06;;;;;;;4.45;2.47;;;19.10;51.70;;;;;;5091967;28;20566;-72
2022/04/28 12:46:32;;;;;;;3.97;2.30;;;19.10;50.90;;;;;;5092808;28;20187;-73
2022/04/28 12:48:59;;;;;;;3.08;2.17;;;19.10;50.90;;;;;;5092350;28;20174;-72
2022/04/28 12:51:26;;;;;;;3.60;2.47;;;19.10;50.90;;;;;;5091848;28;20192;-71
2022/04/28 12:54:08;;;;;;;5.07;2.17;;;19.10;50.80;;;;;;5092098;28;20189;-72
2022/04/28 12:56:33;;;;;;;3.40;1.95;;;19.10;50.80;;;;;;5092608;28;20185;-70
2022/04/28 12:59:09;;;;;;;6.13;2.30;;;19.10;50.80;;;;;;5091306;28;20217;-73
2022/04/28 13:01:35;;;;;;;3.47;1.85;;;19.20;50.80;;;;;;5092072;28;20214;-72
2022/04/28 13:04:03;;;;;;;4.95;2.20;;;19.20;50.70;;;;;;5092611;28;20181;-71
2022/04/28 13:06:30;;;;;;;2.00;1.80;;;19.20;50.60;;;;;;5091832;28;20182;-72
2022/04/28 13:09:00;;;;;;;4.18;2.05;;;19.30;50.40;;;;;;5092073;28;20682;-69
2022/04/28 13:11:27;;;;;;;5.45;2.20;;;19.30;50.30;;;;;;5091700;28;20194;-69
2022/04/28 13:13:52;;;;;;;4.38;2.15;;;19.40;50.30;;;;;;5092076;28;20178;-69
2022/04/28 13:16:19;;;;;;;3.28;2.15;;;19.40;50.20;;;;;;5092246;28;20656;-71
2022/04/28 13:18:45;;;;;;;3.05;1.98;;;19.50;50.10;;;;;;5091116;28;20182;-71
2022/04/28 13:21:12;;;;;;;3.22;2.13;;;19.50;50.00;;;;;;5092349;28;20217;-71
2022/04/28 13:23:41;;;;;;;4.18;2.10;;;19.50;50.60;;;;;;5092120;28;20205;-70
2022/04/28 13:26:08;;;;;;;3.08;2.35;;;19.60;50.00;;;;;;5091520;28;20682;-69
2022/04/28 13:28:33;;;;;;;4.57;2.58;;;19.60;49.90;;;;;;5092270;28;20198;-71